Time;durP1;ratioP1;P1;durP2;ratioP2;P2;SDS_P1;SDS_P2;PMS_P1;PMS_P2;Temp;Humidity;BMP_temperature;BMP_pressure;BME280_temperature;BME280_humidity;BME280_pressure;Samples;Min_cycle;Max_cycle;Signal;HPM_P1;HPM_P2
2022/02/26 00:01:05;;;;;;;9.53;2.77;;;4.60;99.90;;;;;;5026766;28;20594;-80
2022/02/26 00:03:32;;;;;;;16.23;3.33;;;4.60;99.90;;;;;;5007052;28;20248;-79
2022/02/26 00:05:58;;;;;;;9.13;2.67;;;4.60;99.90;;;;;;5021520;28;20274;-80
2022/02/26 00:08:25;;;;;;;10.83;3.10;;;4.60;99.90;;;;;;5007075;28;20210;-80
2022/02/26 00:10:52;;;;;;;19.17;3.27;;;4.70;99.90;;;;;;5017670;28;20204;-79
2022/02/26 00:13:19;;;;;;;12.67;2.87;;;4.60;99.90;;;;;;5019468;28;20214;-79
2022/02/26 00:15:46;;;;;;;13.50;3.03;;;4.60;99.90;;;;;;5013014;28;20431;-79
2022/02/26 00:18:14;;;;;;;8.07;2.30;;;4.60;99.90;;;;;;5005299;28;20213;-79
2022/02/26 00:20:40;;;;;;;15.87;2.87;;;4.50;99.90;;;;;;5047632;28;20198;-79
2022/02/26 00:23:07;;;;;;;16.93;3.73;;;4.60;99.90;;;;;;5054126;28;20237;-79
2022/02/26 00:25:34;;;;;;;11.17;2.77;;;4.60;99.90;;;;;;5032157;28;20209;-79
2022/02/26 00:28:00;;;;;;;12.77;2.37;;;4.60;99.90;;;;;;5044423;28;20257;-79
2022/02/26 00:30:27;;;;;;;15.77;3.17;;;4.60;99.90;;;;;;5014404;28;20202;-79
2022/02/26 00:32:54;;;;;;;8.97;2.60;;;4.60;99.90;;;;;;5002525;28;20213;-79
2022/02/26 00:35:21;;;;;;;9.33;2.80;;;4.60;99.90;;;;;;5030441;28;20227;-79
2022/02/26 00:37:48;;;;;;;15.07;3.30;;;4.60;99.90;;;;;;5016999;28;20233;-79
2022/02/26 00:40:15;;;;;;;13.43;3.17;;;4.60;99.90;;;;;;5016944;28;20243;-79
2022/02/26 00:42:42;;;;;;;14.50;3.70;;;4.60;99.90;;;;;;4993543;28;20226;-79
2022/02/26 00:45:09;;;;;;;12.73;2.93;;;4.50;99.90;;;;;;5018679;28;20509;-79
2022/02/26 00:47:36;;;;;;;8.97;2.30;;;4.50;99.90;;;;;;5006034;28;20274;-78
2022/02/26 00:50:03;;;;;;;9.43;3.00;;;4.50;99.90;;;;;;5013674;28;20205;-78
2022/02/26 00:52:33;;;;;;;10.17;2.63;;;4.50;99.90;;;;;;5011608;28;20293;-79
2022/02/26 00:55:01;;;;;;;13.83;3.03;;;4.60;99.90;;;;;;5057389;28;20241;-79
2022/02/26 00:57:28;;;;;;;9.23;2.70;;;4.50;99.90;;;;;;5067636;28;20247;-79
2022/02/26 00:59:55;;;;;;;11.10;3.00;;;4.50;99.90;;;;;;5016942;28;20224;-79
2022/02/26 01:02:22;;;;;;;11.00;3.03;;;4.50;99.90;;;;;;5004815;28;20252;-79
2022/02/26 01:04:49;;;;;;;12.40;3.00;;;4.50;99.90;;;;;;5013816;28;20209;-79
2022/02/26 01:07:16;;;;;;;15.07;2.97;;;4.50;99.90;;;;;;5013384;28;20271;-80
2022/02/26 01:09:44;;;;;;;9.00;2.40;;;4.50;99.90;;;;;;5025585;28;20465;-79
2022/02/26 01:12:12;;;;;;;14.70;3.70;;;4.50;99.90;;;;;;5017016;28;20256;-79
2022/02/26 01:14:40;;;;;;;13.67;2.60;;;4.50;99.90;;;;;;5023904;28;20664;-79
2022/02/26 01:17:09;;;;;;;12.07;2.97;;;4.50;99.90;;;;;;5011758;28;20217;-80
2022/02/26 01:19:36;;;;;;;12.57;2.57;;;4.50;99.90;;;;;;5016153;28;20270;-79
2022/02/26 01:22:03;;;;;;;12.63;2.83;;;4.50;99.90;;;;;;5004673;28;20280;-79
2022/02/26 01:24:30;;;;;;;12.47;2.57;;;4.50;99.90;;;;;;5010563;28;20210;-78
2022/02/26 01:26:58;;;;;;;17.67;3.37;;;4.50;99.90;;;;;;5002367;28;20213;-79
2022/02/26 01:29:25;;;;;;;13.17;3.00;;;4.50;99.90;;;;;;5017543;28;20340;-79
2022/02/26 01:31:51;;;;;;;10.67;3.40;;;4.50;99.90;;;;;;5011273;28;20263;-79
2022/02/26 01:34:18;;;;;;;15.40;3.20;;;4.50;99.90;;;;;;5012791;28;20213;-78
2022/02/26 01:36:45;;;;;;;15.70;3.00;;;4.50;99.90;;;;;;5016657;28;20266;-79
2022/02/26 01:39:11;;;;;;;14.67;3.17;;;4.50;99.90;;;;;;5019091;28;20233;-79
2022/02/26 01:41:40;;;;;;;15.00;3.30;;;4.50;99.90;;;;;;5023039;28;20667;-80
2022/02/26 01:44:08;;;;;;;14.10;3.27;;;4.50;99.90;;;;;;5008926;28;20663;-79
2022/02/26 01:46:36;;;;;;;16.87;3.60;;;4.50;99.90;;;;;;5019011;28;20214;-79
2022/02/26 01:49:03;;;;;;;10.30;3.10;;;4.50;99.90;;;;;;5008689;28;20259;-79
2022/02/26 01:51:30;;;;;;;13.77;3.63;;;4.50;99.90;;;;;;5010570;28;20205;-79
2022/02/26 01:53:57;;;;;;;14.10;2.90;;;4.50;99.90;;;;;;5091871;28;20202;-79
2022/02/26 01:56:24;;;;;;;13.20;3.33;;;4.50;99.90;;;;;;5015730;28;20241;-80
2022/02/26 01:58:51;;;;;;;13.70;3.27;;;4.50;99.90;;;;;;5009043;28;20203;-80
2022/02/26 02:01:19;;;;;;;13.93;2.90;;;4.40;99.90;;;;;;5007295;28;20239;-79
2022/02/26 02:03:46;;;;;;;18.50;3.73;;;4.50;99.90;;;;;;5008964;28;20630;-79
2022/02/26 02:06:13;;;;;;;15.00;3.20;;;4.40;99.90;;;;;;5017448;28;20205;-79
2022/02/26 02:08:42;;;;;;;13.00;3.17;;;4.50;99.90;;;;;;5093257;28;20287;-79
2022/02/26 02:11:08;;;;;;;13.57;2.80;;;4.40;99.90;;;;;;5016262;28;20270;-79
2022/02/26 02:13:35;;;;;;;16.57;3.20;;;4.40;99.90;;;;;;5004521;28;20709;-79
2022/02/26 02:16:04;;;;;;;15.00;3.20;;;4.40;99.90;;;;;;5007699;28;20210;-79
2022/02/26 02:18:32;;;;;;;13.17;3.33;;;4.40;99.90;;;;;;5003668;28;20209;-79
2022/02/26 02:20:59;;;;;;;21.23;4.20;;;4.40;99.90;;;;;;5017732;28;20751;-80
2022/02/26 02:23:27;;;;;;;14.03;3.40;;;4.40;99.90;;;;;;5020943;28;20245;-79
2022/02/26 02:25:56;;;;;;;18.57;3.57;;;4.40;99.90;;;;;;5013089;28;20254;-79
2022/02/26 02:28:24;;;;;;;13.37;3.30;;;4.40;99.90;;;;;;5018941;28;20213;-79
2022/02/26 02:30:51;;;;;;;17.37;3.17;;;4.40;99.90;;;;;;5024918;28;20205;-79
2022/02/26 02:33:17;;;;;;;11.60;2.87;;;4.40;99.90;;;;;;5005155;28;20251;-79
2022/02/26 02:35:45;;;;;;;10.23;2.70;;;4.40;99.90;;;;;;5020555;28;20262;-79
2022/02/26 02:38:13;;;;;;;12.20;3.33;;;4.40;99.90;;;;;;5005071;28;20241;-79
2022/02/26 02:40:43;;;;;;;17.27;3.30;;;4.50;99.90;;;;;;5018323;28;20213;-78
2022/02/26 02:43:11;;;;;;;12.53;3.13;;;4.40;99.90;;;;;;5003207;28;20229;-79
2022/02/26 02:45:39;;;;;;;18.17;3.30;;;4.40;99.90;;;;;;5009272;28;20202;-80
2022/02/26 02:48:07;;;;;;;13.70;2.60;;;4.40;99.90;;;;;;5009533;28;20633;-79
2022/02/26 02:50:34;;;;;;;13.13;3.60;;;4.40;99.90;;;;;;5028125;28;20208;-79
2022/02/26 02:53:00;;;;;;;12.67;3.70;;;4.40;99.90;;;;;;5021873;28;20245;-78
2022/02/26 02:55:27;;;;;;;8.63;3.00;;;4.50;99.90;;;;;;5028574;28;20290;-79
2022/02/26 02:57:56;;;;;;;14.40;3.10;;;4.40;99.90;;;;;;5010242;28;20267;-79
2022/02/26 03:00:22;;;;;;;17.97;3.60;;;4.40;99.90;;;;;;5048770;28;20289;-80
2022/02/26 03:02:50;;;;;;;23.80;4.20;;;4.40;99.90;;;;;;5068276;28;20289;-82
2022/02/26 03:05:18;;;;;;;16.87;3.70;;;4.30;99.90;;;;;;5043158;28;20781;-79
2022/02/26 03:07:45;;;;;;;14.23;3.17;;;4.40;99.90;;;;;;5062615;28;20214;-79
2022/02/26 03:10:12;;;;;;;15.27;3.77;;;4.30;99.90;;;;;;5023102;28;20804;-79
2022/02/26 03:12:39;;;;;;;12.63;3.20;;;4.30;99.90;;;;;;5004975;28;20217;-79
2022/02/26 03:15:08;;;;;;;9.43;3.23;;;4.30;99.90;;;;;;5034582;28;20560;-78
2022/02/26 03:17:35;;;;;;;18.37;3.13;;;4.30;99.90;;;;;;5016677;28;20209;-79
2022/02/26 03:20:03;;;;;;;13.40;3.33;;;4.30;99.90;;;;;;5016908;28;20614;-79
2022/02/26 03:22:29;;;;;;;14.10;3.17;;;4.30;99.90;;;;;;5012853;28;20209;-79
2022/02/26 03:24:56;;;;;;;16.43;3.40;;;4.30;99.90;;;;;;5027605;28;20615;-79
2022/02/26 03:27:22;;;;;;;16.10;3.43;;;4.30;99.90;;;;;;5016677;28;20210;-79
2022/02/26 03:29:49;;;;;;;11.70;2.93;;;4.30;99.90;;;;;;5017168;28;20210;-79
2022/02/26 03:32:17;;;;;;;13.53;3.03;;;4.30;99.90;;;;;;5011602;28;20206;-78
2022/02/26 03:34:44;;;;;;;13.53;3.33;;;4.30;99.90;;;;;;5023634;28;20205;-79
2022/02/26 03:37:11;;;;;;;11.43;3.27;;;4.30;99.90;;;;;;5007276;28;20236;-79
2022/02/26 03:39:38;;;;;;;9.03;2.93;;;4.30;99.90;;;;;;5022479;28;20202;-79
2022/02/26 03:42:07;;;;;;;14.80;3.10;;;4.30;99.90;;;;;;5017736;28;20213;-79
2022/02/26 03:44:34;;;;;;;14.20;3.33;;;4.30;99.90;;;;;;5078154;28;20230;-79
2022/02/26 03:47:02;;;;;;;14.67;3.27;;;4.30;99.90;;;;;;5050987;28;20210;-79
2022/02/26 03:49:30;;;;;;;15.13;3.33;;;4.20;99.90;;;;;;5013827;28;20288;-79
2022/02/26 03:51:57;;;;;;;15.40;3.20;;;4.20;99.90;;;;;;5017324;28;20209;-78
2022/02/26 03:54:24;;;;;;;13.77;3.40;;;4.20;99.90;;;;;;5019413;28;20787;-79
2022/02/26 03:56:53;;;;;;;15.27;3.20;;;4.20;99.90;;;;;;5020279;28;20206;-80
2022/02/26 03:59:20;;;;;;;15.20;3.47;;;4.10;99.90;;;;;;5011490;28;20206;-80
2022/02/26 04:01:46;;;;;;;15.03;3.60;;;4.10;99.90;;;;;;5022776;28;20266;-78
2022/02/26 04:04:13;;;;;;;10.67;3.00;;;4.10;99.90;;;;;;5025273;28;20237;-79
2022/02/26 04:06:41;;;;;;;17.83;3.97;;;4.10;99.90;;;;;;5015188;28;20209;-78
2022/02/26 04:09:08;;;;;;;13.67;2.93;;;4.10;99.90;;;;;;5013736;28;20283;-81
2022/02/26 04:11:34;;;;;;;16.07;3.33;;;4.10;99.90;;;;;;5010332;28;20738;-79
2022/02/26 04:14:01;;;;;;;13.97;3.50;;;4.00;99.90;;;;;;5009208;28;20258;-79
2022/02/26 04:16:28;;;;;;;14.97;4.20;;;4.00;99.90;;;;;;5019077;28;20216;-79
2022/02/26 04:18:54;;;;;;;16.37;3.37;;;4.00;99.90;;;;;;5088669;28;20617;-78
2022/02/26 04:21:23;;;;;;;12.77;3.43;;;4.00;99.90;;;;;;5018927;28;20213;-79
2022/02/26 04:23:52;;;;;;;11.13;2.60;;;3.90;99.90;;;;;;5013585;28;20643;-78
2022/02/26 04:26:19;;;;;;;16.80;3.97;;;4.00;99.90;;;;;;5009074;28;20322;-78
2022/02/26 04:28:45;;;;;;;18.10;3.83;;;4.00;99.90;;;;;;5010039;28;20213;-78
2022/02/26 04:31:12;;;;;;;15.13;3.37;;;4.00;99.90;;;;;;5019648;28;20209;-79
2022/02/26 04:33:38;;;;;;;10.83;3.03;;;4.10;99.90;;;;;;4991527;28;20202;-78
2022/02/26 04:36:06;;;;;;;15.80;3.80;;;4.10;99.90;;;;;;5016317;28;20608;-79
2022/02/26 04:38:35;;;;;;;15.00;3.20;;;4.10;99.90;;;;;;5013286;28;20221;-80
2022/02/26 04:41:06;;;;;;;14.07;3.07;;;4.00;99.90;;;;;;5021518;28;20234;-80
2022/02/26 04:43:35;;;;;;;12.27;2.70;;;4.00;99.90;;;;;;5096084;28;20206;-78
2022/02/26 04:46:04;;;;;;;16.33;3.10;;;4.10;99.90;;;;;;5034418;28;20254;-79
2022/02/26 04:48:31;;;;;;;15.53;3.10;;;4.10;99.90;;;;;;4989249;28;20602;-78
2022/02/26 04:50:58;;;;;;;13.97;2.97;;;4.20;99.90;;;;;;5007273;28;20209;-78
2022/02/26 04:53:25;;;;;;;12.90;3.13;;;4.20;99.90;;;;;;4996018;28;20241;-78
2022/02/26 04:55:52;;;;;;;10.00;2.80;;;4.30;99.90;;;;;;5023594;28;20277;-79
2022/02/26 04:58:21;;;;;;;10.97;3.20;;;4.30;99.90;;;;;;5014512;28;20732;-79
2022/02/26 05:00:47;;;;;;;20.07;3.40;;;4.30;99.90;;;;;;5022956;28;20316;-79
2022/02/26 05:03:16;;;;;;;14.10;3.63;;;4.30;99.90;;;;;;5003531;28;20238;-79
2022/02/26 05:05:43;;;;;;;17.63;4.10;;;4.30;99.90;;;;;;5015857;28;20651;-79
2022/02/26 05:08:09;;;;;;;12.70;3.27;;;4.30;99.90;;;;;;4994866;28;20206;-81
2022/02/26 05:10:37;;;;;;;14.10;3.50;;;4.40;99.90;;;;;;5020657;28;20210;-79
2022/02/26 05:13:04;;;;;;;16.03;3.33;;;4.40;99.90;;;;;;4997605;28;20675;-78
2022/02/26 05:15:32;;;;;;;12.57;2.80;;;4.40;99.90;;;;;;5019751;28;20202;-78
2022/02/26 05:17:59;;;;;;;13.33;2.93;;;4.40;99.90;;;;;;4994173;28;20231;-79
2022/02/26 05:20:25;;;;;;;10.23;3.20;;;4.40;99.90;;;;;;5016738;28;20209;-79
2022/02/26 05:22:52;;;;;;;15.27;3.23;;;4.40;99.90;;;;;;5005578;28;20262;-78
2022/02/26 05:25:19;;;;;;;16.97;3.63;;;4.40;99.90;;;;;;5015845;28;20674;-79
2022/02/26 05:27:46;;;;;;;15.63;3.33;;;4.40;99.90;;;;;;5017713;28;20205;-79
2022/02/26 05:30:15;;;;;;;13.63;2.60;;;4.40;99.90;;;;;;5017931;28;20215;-78
2022/02/26 05:32:44;;;;;;;10.17;3.10;;;4.40;99.90;;;;;;5009207;28;20263;-79
2022/02/26 05:35:11;;;;;;;12.33;3.13;;;4.40;99.90;;;;;;5038360;28;20214;-78
2022/02/26 05:37:38;;;;;;;18.13;3.70;;;4.40;99.90;;;;;;5010650;28;20229;-78
2022/02/26 05:40:06;;;;;;;11.23;3.20;;;4.40;99.90;;;;;;5025733;28;20208;-79
2022/02/26 05:42:33;;;;;;;12.03;3.53;;;4.40;99.90;;;;;;5017473;28;20209;-79
2022/02/26 05:45:00;;;;;;;11.13;2.73;;;4.40;99.90;;;;;;5011916;28;20234;-79
2022/02/26 05:47:26;;;;;;;8.70;2.70;;;4.40;99.90;;;;;;5010584;28;20227;-79
2022/02/26 05:49:54;;;;;;;9.90;2.90;;;4.40;99.90;;;;;;5010579;28;20210;-79
2022/02/26 05:52:21;;;;;;;22.13;4.00;;;4.50;99.90;;;;;;5003586;28;20218;-79
2022/02/26 05:54:49;;;;;;;17.13;2.93;;;4.50;99.90;;;;;;5060777;28;20242;-79
2022/02/26 05:57:16;;;;;;;15.77;3.37;;;4.40;99.90;;;;;;5044512;28;20205;-79
2022/02/26 05:59:43;;;;;;;13.47;3.33;;;4.40;99.90;;;;;;5011685;28;20221;-79
2022/02/26 06:02:09;;;;;;;15.10;3.47;;;4.50;99.90;;;;;;5010226;28;20219;-79
2022/02/26 06:04:36;;;;;;;10.83;2.73;;;4.50;99.90;;;;;;5023299;28;20246;-78
2022/02/26 06:07:04;;;;;;;10.03;3.07;;;4.50;99.90;;;;;;5007919;28;20235;-79
2022/02/26 06:09:31;;;;;;;8.20;2.40;;;4.50;99.90;;;;;;5008549;28;20202;-79
2022/02/26 06:11:58;;;;;;;9.53;2.70;;;4.50;99.90;;;;;;5005137;28;20209;-79
2022/02/26 06:14:24;;;;;;;14.07;3.20;;;4.50;99.90;;;;;;5018854;28;20671;-79
2022/02/26 06:16:51;;;;;;;12.63;2.60;;;4.50;99.90;;;;;;5020270;28;20209;-79
2022/02/26 06:19:18;;;;;;;9.23;3.00;;;4.50;99.90;;;;;;5015401;28;20296;-79
2022/02/26 06:21:47;;;;;;;16.40;3.43;;;4.50;99.90;;;;;;5009662;28;20202;-79
2022/02/26 06:24:16;;;;;;;12.90;2.87;;;4.50;99.90;;;;;;5018463;28;20781;-79
2022/02/26 06:26:43;;;;;;;9.17;2.90;;;4.50;99.90;;;;;;5018654;28;20266;-79
2022/02/26 06:29:10;;;;;;;12.97;2.90;;;4.50;99.90;;;;;;5019369;28;20263;-79
2022/02/26 06:31:36;;;;;;;11.97;3.07;;;4.50;99.90;;;;;;5014299;28;20258;-79
2022/02/26 06:34:03;;;;;;;13.63;3.53;;;4.50;99.90;;;;;;5013487;28;20668;-79
2022/02/26 06:36:31;;;;;;;13.83;3.20;;;4.50;99.90;;;;;;5006902;28;20708;-79
2022/02/26 06:38:58;;;;;;;15.17;3.70;;;4.50;99.90;;;;;;5018172;28;20291;-79
2022/02/26 06:41:26;;;;;;;16.47;3.43;;;4.50;99.90;;;;;;5023815;28;20263;-78
2022/02/26 06:43:52;;;;;;;12.03;3.60;;;4.50;99.90;;;;;;5013378;28;20233;-80
2022/02/26 06:46:19;;;;;;;15.70;3.97;;;4.50;99.90;;;;;;5016052;28;20210;-79
2022/02/26 06:48:46;;;;;;;18.07;3.73;;;4.50;99.90;;;;;;5025508;28;20724;-79
2022/02/26 06:51:13;;;;;;;12.57;3.60;;;4.50;99.90;;;;;;5027562;28;20260;-79
2022/02/26 06:53:40;;;;;;;11.33;3.10;;;4.50;99.90;;;;;;4998655;28;20218;-79
2022/02/26 06:56:07;;;;;;;11.57;2.80;;;4.50;99.90;;;;;;5027611;28;20655;-79
2022/02/26 06:58:35;;;;;;;13.03;3.23;;;4.50;99.90;;;;;;5028509;28;20201;-79
2022/02/26 07:01:04;;;;;;;17.43;3.47;;;4.50;99.90;;;;;;5012517;28;20213;-79
2022/02/26 07:03:30;;;;;;;16.07;2.80;;;4.50;99.90;;;;;;5017725;28;20293;-81
2022/02/26 07:05:57;;;;;;;13.03;3.07;;;4.50;99.90;;;;;;5015622;28;20216;-79
2022/02/26 07:08:24;;;;;;;15.00;3.70;;;4.50;99.90;;;;;;5061239;28;20270;-79
2022/02/26 07:10:51;;;;;;;6.63;2.60;;;4.50;99.90;;;;;;5022934;28;20301;-79
2022/02/26 07:13:18;;;;;;;15.03;3.17;;;4.60;99.90;;;;;;5098771;28;20198;-79
2022/02/26 07:15:46;;;;;;;15.53;2.90;;;4.60;99.90;;;;;;5020181;28;20217;-78
2022/02/26 07:18:12;;;;;;;20.30;3.30;;;4.60;99.90;;;;;;5006357;28;20567;-79
2022/02/26 07:20:39;;;;;;;12.10;3.30;;;4.60;99.90;;;;;;5017994;28;20209;-80
2022/02/26 07:23:06;;;;;;;16.43;3.37;;;4.60;99.90;;;;;;5007890;28;20213;-79
2022/02/26 07:25:33;;;;;;;12.33;3.53;;;4.70;99.90;;;;;;5028061;28;20233;-79
2022/02/26 07:27:59;;;;;;;9.00;2.57;;;4.80;99.90;;;;;;5008719;28;20263;-79
2022/02/26 07:30:26;;;;;;;12.37;2.97;;;4.80;99.90;;;;;;5021333;28;20206;-79
2022/02/26 07:32:54;;;;;;;12.97;3.07;;;4.80;99.90;;;;;;5072703;28;20213;-79
2022/02/26 07:35:21;;;;;;;8.37;2.60;;;4.80;99.90;;;;;;5013938;28;20238;-78
2022/02/26 07:37:48;;;;;;;10.90;2.50;;;4.80;99.90;;;;;;5021797;28;20235;-78
2022/02/26 07:40:15;;;;;;;7.10;2.80;;;4.80;99.90;;;;;;5028207;28;20560;-79
2022/02/26 07:42:42;;;;;;;10.40;3.33;;;4.80;99.90;;;;;;5056817;28;20209;-79
2022/02/26 07:45:09;;;;;;;13.50;2.73;;;4.80;99.90;;;;;;5021918;28;20233;-79
2022/02/26 07:47:35;;;;;;;10.60;2.57;;;4.80;99.90;;;;;;5023621;28;20210;-79
2022/02/26 07:50:04;;;;;;;7.07;2.40;;;4.80;99.90;;;;;;5031889;28;20209;-78
2022/02/26 07:52:31;;;;;;;15.77;3.17;;;4.80;99.90;;;;;;5079370;28;20266;-78
2022/02/26 07:54:57;;;;;;;13.97;3.17;;;4.90;99.90;;;;;;5029055;28;20232;-78
2022/02/26 07:57:25;;;;;;;14.13;3.23;;;4.90;99.90;;;;;;5024342;28;20214;-79
2022/02/26 07:59:52;;;;;;;10.40;2.77;;;4.90;99.90;;;;;;5017337;28;20299;-79
2022/02/26 08:02:19;;;;;;;10.40;2.80;;;4.90;99.90;;;;;;5006928;28;20251;-79
2022/02/26 08:04:46;;;;;;;13.60;3.10;;;5.00;99.90;;;;;;5022662;28;20241;-79
2022/02/26 08:07:14;;;;;;;10.67;3.73;;;5.00;99.90;;;;;;5008193;28;20224;-84
2022/02/26 08:09:41;;;;;;;12.33;3.03;;;5.00;99.90;;;;;;5016070;28;20413;-79
2022/02/26 08:12:08;;;;;;;12.77;2.97;;;5.00;99.90;;;;;;5009864;28;20209;-78
2022/02/26 08:14:37;;;;;;;9.57;3.37;;;5.00;99.90;;;;;;5023743;28;20261;-78
2022/02/26 08:17:04;;;;;;;8.87;2.73;;;5.10;99.90;;;;;;5018146;28;20217;-79
2022/02/26 08:19:31;;;;;;;8.30;2.50;;;5.10;99.90;;;;;;5017413;28;20209;-79
2022/02/26 08:21:57;;;;;;;14.17;3.33;;;5.10;99.90;;;;;;5006369;28;20848;-79
2022/02/26 08:24:26;;;;;;;14.20;3.17;;;5.10;99.90;;;;;;5021273;28;20748;-78
2022/02/26 08:26:52;;;;;;;13.30;2.80;;;5.00;99.90;;;;;;5006602;28;20296;-78
2022/02/26 08:29:19;;;;;;;11.13;2.90;;;5.00;99.90;;;;;;5014523;28;20206;-78
2022/02/26 08:31:46;;;;;;;7.57;2.83;;;5.10;99.90;;;;;;5005460;28;20254;-79
2022/02/26 08:34:12;;;;;;;9.13;2.57;;;5.10;99.90;;;;;;5023028;28;20217;-79
2022/02/26 08:36:40;;;;;;;9.67;2.97;;;5.10;99.90;;;;;;5014877;28;20768;-78
2022/02/26 08:39:07;;;;;;;11.03;2.50;;;5.00;99.90;;;;;;5011704;28;20201;-78
2022/02/26 08:41:35;;;;;;;4.97;1.97;;;5.00;99.90;;;;;;5010923;28;20263;-78
2022/02/26 08:44:01;;;;;;;7.47;2.23;;;5.00;99.90;;;;;;5018349;28;20205;-78
2022/02/26 08:46:28;;;;;;;8.60;2.60;;;5.10;99.90;;;;;;5011041;28;20209;-79
2022/02/26 08:48:56;;;;;;;15.50;3.03;;;5.10;99.90;;;;;;5024015;28;20209;-78
2022/02/26 08:51:22;;;;;;;7.67;2.83;;;5.10;99.90;;;;;;5012093;28;20214;-79
2022/02/26 08:53:49;;;;;;;11.20;3.00;;;5.10;99.90;;;;;;5077656;28;20575;-79
2022/02/26 08:56:16;;;;;;;8.27;2.57;;;5.20;99.90;;;;;;5049640;28;20715;-79
2022/02/26 08:58:44;;;;;;;5.90;2.40;;;5.20;99.90;;;;;;5013409;28;20251;-78
2022/02/26 09:01:10;;;;;;;6.93;2.80;;;5.20;99.90;;;;;;5011485;28;20213;-78
2022/02/26 09:03:37;;;;;;;9.67;2.73;;;5.20;99.90;;;;;;5026271;28;20213;-78
2022/02/26 09:06:06;;;;;;;12.00;3.03;;;5.20;99.90;;;;;;5020616;28;20279;-79
2022/02/26 09:08:35;;;;;;;10.10;2.10;;;5.30;99.90;;;;;;5078743;28;20683;-78
2022/02/26 09:11:06;;;;;;;8.20;2.53;;;5.20;99.90;;;;;;5038323;28;20247;-79
2022/02/26 09:13:35;;;;;;;12.70;2.97;;;5.30;99.90;;;;;;5017281;28;20288;-79
2022/02/26 09:16:06;;;;;;;12.30;3.00;;;5.40;99.90;;;;;;5016860;28;20206;-79
2022/02/26 09:18:32;;;;;;;12.23;2.77;;;5.40;99.90;;;;;;5012401;28;20713;-78
2022/02/26 09:21:00;;;;;;;7.90;2.67;;;5.40;99.90;;;;;;5027405;28;20202;-78
2022/02/26 09:23:28;;;;;;;12.33;2.93;;;5.40;99.90;;;;;;5012498;28;20210;-79
2022/02/26 09:25:55;;;;;;;11.40;2.43;;;5.40;99.90;;;;;;5018186;28;20336;-78
2022/02/26 09:28:22;;;;;;;9.80;3.27;;;5.40;99.90;;;;;;5017043;28;20221;-79
2022/02/26 09:30:48;;;;;;;8.53;2.73;;;5.40;99.90;;;;;;5025708;28;20260;-78
2022/02/26 09:33:16;;;;;;;15.40;3.03;;;5.50;99.90;;;;;;5007239;28;20216;-79
2022/02/26 09:35:43;;;;;;;11.60;3.20;;;5.50;99.90;;;;;;5014413;28;20209;-78
2022/02/26 09:38:10;;;;;;;10.03;3.37;;;5.40;99.90;;;;;;5023031;28;20267;-78
2022/02/26 09:40:38;;;;;;;12.47;2.87;;;5.50;99.90;;;;;;5012176;28;20230;-79
2022/02/26 09:43:05;;;;;;;12.23;2.60;;;5.50;99.90;;;;;;5074622;28;20205;-79
2022/02/26 09:45:32;;;;;;;10.90;3.27;;;5.60;99.90;;;;;;5023049;28;20262;-79
2022/02/26 09:47:59;;;;;;;8.73;2.60;;;5.60;99.90;;;;;;5008624;28;20273;-78
2022/02/26 09:50:27;;;;;;;6.87;2.60;;;5.60;99.90;;;;;;5009617;28;20900;-78
2022/02/26 09:52:54;;;;;;;8.07;2.77;;;5.60;99.90;;;;;;5005266;28;20206;-79
2022/02/26 09:55:20;;;;;;;12.17;3.03;;;5.60;99.90;;;;;;5017408;28;20298;-79
2022/02/26 09:57:47;;;;;;;9.67;3.20;;;5.70;99.90;;;;;;5094970;28;20326;-79
2022/02/26 10:00:15;;;;;;;10.77;2.83;;;5.70;99.90;;;;;;5020458;28;20661;-79
2022/02/26 10:02:43;;;;;;;13.40;3.10;;;5.70;99.90;;;;;;5005138;28;20840;-78
2022/02/26 10:05:12;;;;;;;10.40;2.77;;;5.70;99.90;;;;;;5023738;28;20786;-79
2022/02/26 10:07:41;;;;;;;10.00;2.60;;;5.80;99.90;;;;;;5086870;28;20266;-79
2022/02/26 10:10:14;;;;;;;11.00;3.27;;;5.90;99.90;;;;;;5020406;28;20214;-79
2022/02/26 10:12:40;;;;;;;13.27;2.80;;;5.90;99.90;;;;;;5058717;28;20201;-79
2022/02/26 10:15:22;;;;;;;10.03;2.80;;;6.00;99.90;;;;;;5029935;28;20201;-78
2022/02/26 10:17:58;;;;;;;6.43;2.13;;;6.00;99.90;;;;;;5009107;28;20694;-79
2022/02/26 10:20:25;;;;;;;7.27;2.30;;;6.10;99.90;;;;;;5017068;28;20205;-79
2022/02/26 10:22:55;;;;;;;7.40;2.43;;;6.10;99.90;;;;;;5015228;28;20245;-79
2022/02/26 10:25:23;;;;;;;8.93;2.20;;;6.10;99.90;;;;;;5016048;28;20583;-79
2022/02/26 10:27:52;;;;;;;4.17;2.00;;;6.10;99.90;;;;;;4999523;28;20217;-79
2022/02/26 10:30:25;;;;;;;3.53;1.70;;;6.10;99.90;;;;;;5017024;28;20644;-79
2022/02/26 10:33:09;;;;;;;6.27;1.80;;;6.10;99.90;;;;;;5016248;28;20214;-79
2022/02/26 10:35:44;;;;;;;5.10;1.97;;;6.10;99.90;;;;;;5010237;28;20205;-79
2022/02/26 10:38:19;;;;;;;7.37;3.30;;;6.10;99.90;;;;;;5012857;28;20233;-79
2022/02/26 10:41:00;;;;;;;7.03;2.07;;;6.10;99.90;;;;;;5005708;28;20208;-78
2022/02/26 10:43:46;;;;;;;4.37;1.47;;;6.20;99.90;;;;;;5010672;28;20675;-79
2022/02/26 10:46:25;;;;;;;3.13;1.33;;;6.20;99.90;;;;;;4987199;28;20481;-79
2022/02/26 10:48:55;;;;;;;6.03;1.70;;;6.30;99.90;;;;;;5015652;28;20204;-79
2022/02/26 10:51:23;;;;;;;4.10;1.73;;;6.30;99.90;;;;;;5008129;28;20280;-79
2022/02/26 10:53:52;;;;;;;7.20;1.90;;;6.30;99.90;;;;;;5014882;28;20216;-79
2022/02/26 10:56:19;;;;;;;6.00;1.90;;;6.40;99.90;;;;;;5012654;28;20593;-78
2022/02/26 10:58:46;;;;;;;5.57;1.83;;;6.40;99.90;;;;;;5020521;28;20206;-78
2022/02/26 11:01:16;;;;;;;5.17;1.43;;;6.50;99.90;;;;;;4997734;28;20209;-78
2022/02/26 11:03:43;;;;;;;5.57;1.73;;;6.50;99.90;;;;;;5050413;28;20202;-78
2022/02/26 11:06:12;;;;;;;3.13;1.50;;;6.50;99.90;;;;;;5067649;28;20821;-79
2022/02/26 11:08:40;;;;;;;6.93;1.83;;;6.50;99.90;;;;;;5009327;28;20204;-78
2022/02/26 11:11:09;;;;;;;2.17;1.53;;;6.50;99.90;;;;;;5007462;28;20214;-78
2022/02/26 11:13:37;;;;;;;3.33;1.57;;;6.50;99.90;;;;;;5021139;28;20236;-79
2022/02/26 11:16:09;;;;;;;4.87;1.80;;;6.50;99.90;;;;;;5015795;28;20214;-79
2022/02/26 11:18:40;;;;;;;4.00;1.60;;;6.50;99.90;;;;;;5010745;28;20711;-79
2022/02/26 11:21:09;;;;;;;3.83;1.37;;;6.60;99.90;;;;;;5008213;28;20300;-78
2022/02/26 11:23:36;;;;;;;5.73;1.80;;;6.50;99.90;;;;;;5019859;28;20209;-79
2022/02/26 11:26:09;;;;;;;5.07;1.47;;;6.60;99.90;;;;;;5006084;28;20246;-78
2022/02/26 11:28:37;;;;;;;1.57;1.10;;;6.60;99.90;;;;;;5023383;28;20613;-79
2022/02/26 11:31:09;;;;;;;5.33;2.00;;;6.70;99.90;;;;;;5012151;28;20206;-78
2022/02/26 11:33:37;;;;;;;3.87;1.70;;;6.70;99.90;;;;;;5031806;28;20217;-78
2022/02/26 11:36:07;;;;;;;4.30;2.27;;;6.70;99.90;;;;;;5011741;28;20307;-78
2022/02/26 11:38:35;;;;;;;5.70;2.30;;;6.80;99.90;;;;;;5020146;28;20558;-78
2022/02/26 11:41:19;;;;;;;4.83;1.93;;;6.80;99.90;;;;;;5005202;28;20246;-78
2022/02/26 11:43:48;;;;;;;5.57;1.80;;;6.80;99.90;;;;;;5095442;28;20210;-78
2022/02/26 11:46:19;;;;;;;5.50;1.70;;;6.80;99.90;;;;;;5015129;28;20257;-78
2022/02/26 11:48:47;;;;;;;4.37;1.67;;;6.80;99.90;;;;;;5011951;28;20197;-81
2022/02/26 11:51:15;;;;;;;2.40;1.47;;;6.90;99.90;;;;;;5024402;28;20217;-79
2022/02/26 11:53:43;;;;;;;4.83;1.60;;;6.80;99.90;;;;;;4999599;28;20201;-78
2022/02/26 11:56:11;;;;;;;5.90;2.07;;;6.80;99.90;;;;;;5017908;28;20238;-78
2022/02/26 11:58:40;;;;;;;5.10;2.00;;;6.80;99.90;;;;;;5023043;28;20216;-78
2022/02/26 12:01:09;;;;;;;5.23;1.83;;;6.80;99.90;;;;;;5013135;28;20210;-79
2022/02/26 12:03:49;;;;;;;3.90;1.80;;;6.70;99.90;;;;;;5005536;28;20234;-78
2022/02/26 12:06:35;;;;;;;3.23;1.67;;;6.80;99.90;;;;;;5027613;28;20704;-78
2022/02/26 12:09:07;;;;;;;5.80;2.03;;;6.80;99.90;;;;;;5013543;28;20367;-78
2022/02/26 12:11:37;;;;;;;2.60;1.57;;;6.80;99.90;;;;;;5012751;28;20812;-79
2022/02/26 12:14:10;;;;;;;4.43;1.80;;;6.80;99.90;;;;;;5026627;28;20212;-78
2022/02/26 12:16:38;;;;;;;5.57;1.67;;;6.80;99.90;;;;;;5013212;28;20210;-79
2022/02/26 12:19:08;;;;;;;4.67;1.70;;;6.90;99.90;;;;;;5010412;28;20210;-79
2022/02/26 12:21:36;;;;;;;4.00;1.67;;;7.00;99.90;;;;;;5014178;28;20586;-79
2022/02/26 12:24:09;;;;;;;4.03;1.70;;;7.00;99.90;;;;;;5012697;28;20213;-79
2022/02/26 12:26:43;;;;;;;4.63;1.80;;;7.10;99.90;;;;;;5018613;28;20240;-78
2022/02/26 12:29:29;;;;;;;3.10;1.30;;;7.20;99.90;;;;;;5011109;28;20201;-78
2022/02/26 12:31:57;;;;;;;3.97;1.47;;;7.20;99.90;;;;;;5011880;28;20212;-79
2022/02/26 12:34:26;;;;;;;4.37;1.70;;;7.20;99.90;;;;;;5010681;28;20210;-78
2022/02/26 12:37:09;;;;;;;2.73;1.30;;;7.10;99.90;;;;;;5009156;28;20232;-78
2022/02/26 12:39:38;;;;;;;3.37;1.70;;;7.10;99.90;;;;;;5007752;28;20262;-79
2022/02/26 12:42:05;;;;;;;4.63;1.50;;;7.10;99.90;;;;;;5008190;28;20964;-79
2022/02/26 12:44:35;;;;;;;3.53;1.70;;;7.10;99.90;;;;;;5022310;28;20214;-78
2022/02/26 12:47:03;;;;;;;3.30;1.80;;;7.10;99.90;;;;;;5006637;28;20233;-79
2022/02/26 12:49:29;;;;;;;4.33;1.60;;;7.10;99.90;;;;;;5011797;28;20209;-78
2022/02/26 12:51:57;;;;;;;3.50;1.60;;;7.10;99.90;;;;;;5017778;28;20213;-79
2022/02/26 12:54:31;;;;;;;2.87;1.87;;;7.20;99.90;;;;;;5016442;28;20289;-79